QFA184 YSNF-YBBN
Flight info
| Callsign | QFA184 |
|---|---|
| Flight time | 2h 10m |
| Altitude | 36000 |
| Route | DALOS G329 UGTUG |
| Aircraft | B738/M-SDE2E3FGHIRWXY/LB1 |
Departure
| Time | 2026-04-25 21:43 |
|---|---|
| Airport | Norfolk Island International Airport (YSNF) |
Arrival
| Time | 2026-04-25 23:53 |
|---|---|
| Airport | Brisbane International Airport (YBBN) |
| Time | Latitude | Longitude | Altitude | Speed | Heading |
|---|---|---|---|---|---|
| 2026-04-25 21:28 | -29.03586 | 167.94334 | 339 ft | 0 kts | 331° |
| 2026-04-25 21:37 | -29.03579 | 167.94331 | 336 ft | 3 kts | 349° |
| 2026-04-25 21:37 | -29.03570 | 167.94343 | 335 ft | 3 kts | 71° |
| 2026-04-25 21:37 | -29.03594 | 167.94362 | 334 ft | 4 kts | 167° |
| 2026-04-25 21:37 | -29.03632 | 167.94369 | 337 ft | 7 kts | 174° |
| 2026-04-25 21:38 | -29.03694 | 167.94358 | 336 ft | 11 kts | 192° |
| 2026-04-25 21:38 | -29.03785 | 167.94336 | 338 ft | 15 kts | 191° |
| 2026-04-25 21:38 | -29.03909 | 167.94307 | 329 ft | 20 kts | 197° |
| 2026-04-25 21:38 | -29.04006 | 167.94200 | 332 ft | 19 kts | 229° |
| 2026-04-25 21:39 | -29.04092 | 167.94086 | 330 ft | 19 kts | 229° |
| 2026-04-25 21:39 | -29.04170 | 167.93977 | 326 ft | 17 kts | 242° |
| 2026-04-25 21:39 | -29.04140 | 167.93861 | 323 ft | 16 kts | 304° |
| 2026-04-25 21:39 | -29.04078 | 167.93757 | 326 ft | 16 kts | 304° |
| 2026-04-25 21:40 | -29.04017 | 167.93652 | 326 ft | 17 kts | 304° |
| 2026-04-25 21:40 | -29.03953 | 167.93530 | 323 ft | 18 kts | 302° |
| 2026-04-25 21:40 | -29.03884 | 167.93410 | 327 ft | 18 kts | 303° |
| 2026-04-25 21:40 | -29.03813 | 167.93287 | 328 ft | 20 kts | 302° |
| 2026-04-25 21:41 | -29.03739 | 167.93159 | 329 ft | 19 kts | 304° |
| 2026-04-25 21:41 | -29.03670 | 167.93031 | 326 ft | 12 kts | 298° |
| 2026-04-25 21:41 | -29.03657 | 167.92982 | 326 ft | 2 kts | 283° |
| 2026-04-25 21:41 | -29.03644 | 167.92960 | 325 ft | 2 kts | 338° |
| 2026-04-25 21:42 | -29.03631 | 167.92974 | 326 ft | 3 kts | 79° |
| 2026-04-25 21:42 | -29.03649 | 167.92996 | 326 ft | 5 kts | 143° |
| 2026-04-25 21:42 | -29.03674 | 167.93032 | 323 ft | 10 kts | 124° |
| 2026-04-25 21:42 | -29.03835 | 167.93327 | 324 ft | 82 kts | 122° |
| 2026-04-25 21:43 | -29.04266 | 167.94092 | 349 ft | 143 kts | 121° |
| 2026-04-25 21:43 | -29.04808 | 167.95090 | 1012 ft | 148 kts | 120° |
| 2026-04-25 21:43 | -29.05157 | 167.96182 | 1832 ft | 158 kts | 93° |
| 2026-04-25 21:43 | -29.04698 | 167.97386 | 2502 ft | 183 kts | 48° |
| 2026-04-25 21:44 | -29.03492 | 167.98001 | 3337 ft | 198 kts | 9° |
| 2026-04-25 21:44 | -29.02122 | 167.97661 | 4079 ft | 212 kts | 334° |
| 2026-04-25 21:44 | -29.00286 | 167.95082 | 5594 ft | 217 kts | 285° |
| 2026-04-25 21:45 | -29.00035 | 167.93412 | 6165 ft | 217 kts | 270° |
| 2026-04-25 21:45 | -29.00035 | 167.92823 | 6241 ft | 223 kts | 264° |
| 2026-04-25 21:45 | -29.00234 | 167.89557 | 6153 ft | 270 kts | 264° |
| 2026-04-25 21:45 | -29.00366 | 167.87337 | 6362 ft | 288 kts | 264° |
| 2026-04-25 21:46 | -29.00507 | 167.85031 | 6846 ft | 293 kts | 264° |
| 2026-04-25 21:46 | -29.00648 | 167.82690 | 7296 ft | 301 kts | 264° |
| 2026-04-25 21:46 | -29.00793 | 167.80297 | 8109 ft | 303 kts | 265° |
| 2026-04-25 21:46 | -29.00934 | 167.77917 | 9102 ft | 301 kts | 265° |
| 2026-04-25 21:47 | -29.01076 | 167.75508 | 9899 ft | 306 kts | 265° |
| 2026-04-25 21:47 | -29.01216 | 167.73055 | 10546 ft | 316 kts | 265° |
| 2026-04-25 21:47 | -29.01367 | 167.70456 | 10754 ft | 341 kts | 265° |
| 2026-04-25 21:47 | -29.01530 | 167.67653 | 10979 ft | 363 kts | 265° |
| 2026-04-25 21:48 | -29.01700 | 167.64743 | 11615 ft | 369 kts | 265° |
| 2026-04-25 21:48 | -29.01872 | 167.61810 | 12406 ft | 371 kts | 265° |
| 2026-04-25 21:48 | -29.02045 | 167.58851 | 13104 ft | 376 kts | 264° |
| 2026-04-25 21:48 | -29.02222 | 167.55853 | 13786 ft | 380 kts | 264° |
| 2026-04-25 21:49 | -29.02339 | 167.53849 | 14301 ft | 380 kts | 264° |
| 2026-04-25 21:49 | -29.02489 | 167.50841 | 15096 ft | 380 kts | 267° |
| 2026-04-25 21:49 | -29.02372 | 167.47835 | 15983 ft | 377 kts | 271° |
| 2026-04-25 21:49 | -29.02182 | 167.44841 | 16692 ft | 379 kts | 272° |
| 2026-04-25 21:50 | -29.01978 | 167.41831 | 17378 ft | 381 kts | 272° |
| 2026-04-25 21:50 | -29.01773 | 167.38818 | 18156 ft | 380 kts | 272° |
| 2026-04-25 21:50 | -29.01571 | 167.35811 | 18817 ft | 380 kts | 272° |
| 2026-04-25 21:50 | -29.01372 | 167.32804 | 19436 ft | 380 kts | 274° |
| 2026-04-25 21:51 | -29.01176 | 167.29787 | 20025 ft | 381 kts | 274° |
| 2026-04-25 21:51 | -29.00981 | 167.26770 | 20631 ft | 382 kts | 275° |
| 2026-04-25 21:51 | -29.00786 | 167.23744 | 21213 ft | 382 kts | 275° |
| 2026-04-25 21:51 | -29.00592 | 167.20712 | 21821 ft | 382 kts | 275° |
| 2026-04-25 21:52 | -29.00397 | 167.17681 | 22411 ft | 382 kts | 276° |
| 2026-04-25 21:52 | -29.00202 | 167.14654 | 22965 ft | 383 kts | 276° |
| 2026-04-25 21:52 | -29.00008 | 167.11656 | 23481 ft | 384 kts | 277° |
| 2026-04-25 21:52 | -28.99810 | 167.08602 | 23943 ft | 386 kts | 277° |
| 2026-04-25 21:53 | -28.99610 | 167.05536 | 24308 ft | 389 kts | 277° |
| 2026-04-25 21:53 | -28.99408 | 167.02446 | 24650 ft | 392 kts | 277° |
| 2026-04-25 21:53 | -28.99203 | 166.99322 | 24999 ft | 395 kts | 277° |
| 2026-04-25 21:53 | -28.98996 | 166.96189 | 25363 ft | 397 kts | 278° |
| 2026-04-25 21:54 | -28.98788 | 166.93036 | 25725 ft | 400 kts | 278° |
| 2026-04-25 21:54 | -28.98578 | 166.89858 | 26072 ft | 402 kts | 278° |
| 2026-04-25 21:54 | -28.98365 | 166.86668 | 26420 ft | 404 kts | 278° |
| 2026-04-25 21:54 | -28.98151 | 166.83455 | 26759 ft | 407 kts | 278° |
| 2026-04-25 21:55 | -28.97935 | 166.80227 | 27093 ft | 409 kts | 278° |
| 2026-04-25 21:55 | -28.97717 | 166.76980 | 27406 ft | 411 kts | 279° |
| 2026-04-25 21:55 | -28.97497 | 166.73718 | 27724 ft | 414 kts | 279° |
| 2026-04-25 21:55 | -28.97274 | 166.70436 | 28038 ft | 416 kts | 279° |
| 2026-04-25 21:56 | -28.97050 | 166.67133 | 28350 ft | 418 kts | 279° |
| 2026-04-25 21:56 | -28.96901 | 166.64941 | 28553 ft | 419 kts | 279° |
| 2026-04-25 21:56 | -28.96596 | 166.60483 | 28950 ft | 422 kts | 279° |
| 2026-04-25 21:56 | -28.96366 | 166.57139 | 29329 ft | 422 kts | 279° |
| 2026-04-25 21:57 | -28.96141 | 166.53852 | 29812 ft | 420 kts | 280° |
| 2026-04-25 21:57 | -28.95914 | 166.50544 | 30302 ft | 417 kts | 280° |
| 2026-04-25 21:57 | -28.95687 | 166.47255 | 30687 ft | 415 kts | 280° |
| 2026-04-25 21:57 | -28.95456 | 166.43927 | 31069 ft | 414 kts | 281° |
| 2026-04-25 21:58 | -28.95231 | 166.40705 | 31455 ft | 412 kts | 281° |
| 2026-04-25 21:58 | -28.95003 | 166.37456 | 31841 ft | 410 kts | 281° |
| 2026-04-25 21:58 | -28.94775 | 166.34218 | 32207 ft | 408 kts | 281° |
| 2026-04-25 21:58 | -28.94547 | 166.30991 | 32569 ft | 407 kts | 281° |
| 2026-04-25 21:59 | -28.94319 | 166.27782 | 32951 ft | 405 kts | 282° |
| 2026-04-25 21:59 | -28.94092 | 166.24589 | 33323 ft | 403 kts | 282° |
| 2026-04-25 21:59 | -28.93865 | 166.21399 | 33660 ft | 402 kts | 282° |
| 2026-04-25 22:00 | -28.93409 | 166.15058 | 34297 ft | 400 kts | 282° |
| 2026-04-25 22:00 | -28.93181 | 166.11892 | 34559 ft | 399 kts | 282° |
| 2026-04-25 22:00 | -28.92952 | 166.08731 | 34778 ft | 400 kts | 282° |
| 2026-04-25 22:00 | -28.92722 | 166.05570 | 35002 ft | 400 kts | 282° |
| 2026-04-25 22:01 | -28.92491 | 166.02406 | 35256 ft | 399 kts | 282° |
| 2026-04-25 22:01 | -28.92261 | 165.99251 | 35510 ft | 398 kts | 282° |
| 2026-04-25 22:01 | -28.92031 | 165.96103 | 35761 ft | 398 kts | 282° |
| 2026-04-25 22:01 | -28.91878 | 165.94020 | 35904 ft | 398 kts | 282° |
| 2026-04-25 22:02 | -28.91568 | 165.89812 | 36182 ft | 398 kts | 282° |
| 2026-04-25 22:02 | -28.91334 | 165.86655 | 36166 ft | 400 kts | 282° |
| 2026-04-25 22:02 | -28.90866 | 165.80340 | 36175 ft | 398 kts | 282° |
| 2026-04-25 22:03 | -28.90403 | 165.74068 | 36182 ft | 395 kts | 282° |
| 2026-04-25 22:03 | -28.89937 | 165.67810 | 36188 ft | 397 kts | 282° |
| 2026-04-25 22:04 | -28.89464 | 165.61509 | 36195 ft | 400 kts | 282° |
| 2026-04-25 22:04 | -28.88985 | 165.55158 | 36186 ft | 403 kts | 282° |
| 2026-04-25 22:05 | -28.88503 | 165.48782 | 36190 ft | 404 kts | 282° |
| 2026-04-25 22:05 | -28.88022 | 165.42439 | 36178 ft | 403 kts | 282° |
| 2026-04-25 22:06 | -28.87536 | 165.36079 | 36189 ft | 402 kts | 282° |
| 2026-04-25 22:06 | -28.87048 | 165.29739 | 36178 ft | 400 kts | 282° |
| 2026-04-25 22:07 | -28.86643 | 165.24503 | 36191 ft | 398 kts | 282° |
| 2026-04-25 22:07 | -28.86072 | 165.17187 | 36187 ft | 395 kts | 283° |
| 2026-04-25 22:08 | -28.85583 | 165.10956 | 36186 ft | 393 kts | 283° |
| 2026-04-25 22:08 | -28.85093 | 165.04753 | 36190 ft | 392 kts | 283° |
| 2026-04-25 22:09 | -28.84601 | 164.98574 | 36189 ft | 391 kts | 283° |
| 2026-04-25 22:09 | -28.84107 | 164.92401 | 36194 ft | 391 kts | 283° |
| 2026-04-25 22:10 | -28.83610 | 164.86229 | 36193 ft | 391 kts | 283° |
| 2026-04-25 22:10 | -28.83110 | 164.80049 | 36196 ft | 392 kts | 283° |
| 2026-04-25 22:11 | -28.82605 | 164.73840 | 36196 ft | 393 kts | 283° |
| 2026-04-25 22:11 | -28.82101 | 164.67674 | 36196 ft | 394 kts | 283° |
| 2026-04-25 22:12 | -28.81589 | 164.61446 | 36194 ft | 395 kts | 283° |
| 2026-04-25 22:12 | -28.81160 | 164.56265 | 36201 ft | 395 kts | 283° |
| 2026-04-25 22:13 | -28.80554 | 164.48969 | 36198 ft | 396 kts | 283° |
| 2026-04-25 22:13 | -28.80032 | 164.42721 | 36200 ft | 396 kts | 283° |
| 2026-04-25 22:14 | -28.79507 | 164.36477 | 36199 ft | 396 kts | 283° |
| 2026-04-25 22:14 | -28.78978 | 164.30223 | 36202 ft | 396 kts | 283° |
| 2026-04-25 22:15 | -28.78447 | 164.23970 | 36203 ft | 396 kts | 283° |
| 2026-04-25 22:16 | -28.77648 | 164.14647 | 36205 ft | 396 kts | 283° |
| 2026-04-25 22:16 | -28.77110 | 164.08403 | 36204 ft | 395 kts | 283° |
| 2026-04-25 22:17 | -28.76570 | 164.02167 | 36205 ft | 395 kts | 283° |
| 2026-04-25 22:17 | -28.76026 | 163.95931 | 36204 ft | 395 kts | 283° |
| 2026-04-25 22:18 | -28.75479 | 163.89688 | 36208 ft | 395 kts | 282° |
| 2026-04-25 22:18 | -28.74930 | 163.83455 | 36208 ft | 396 kts | 282° |
| 2026-04-25 22:19 | -28.74378 | 163.77218 | 36209 ft | 396 kts | 282° |
| 2026-04-25 22:19 | -28.73822 | 163.70973 | 36211 ft | 396 kts | 282° |
| 2026-04-25 22:20 | -28.73262 | 163.64725 | 36211 ft | 397 kts | 282° |
| 2026-04-25 22:20 | -28.72703 | 163.58506 | 36210 ft | 397 kts | 282° |
| 2026-04-25 22:21 | -28.72133 | 163.52198 | 36209 ft | 398 kts | 282° |
| 2026-04-25 22:21 | -28.71566 | 163.45966 | 36210 ft | 398 kts | 282° |
| 2026-04-25 22:22 | -28.70993 | 163.39691 | 36209 ft | 399 kts | 282° |
| 2026-04-25 22:22 | -28.70416 | 163.33404 | 36215 ft | 399 kts | 282° |
| 2026-04-25 22:23 | -28.69835 | 163.27113 | 36213 ft | 400 kts | 282° |
| 2026-04-25 22:23 | -28.69251 | 163.20821 | 36214 ft | 400 kts | 282° |
| 2026-04-25 22:24 | -28.68664 | 163.14516 | 36211 ft | 401 kts | 282° |
| 2026-04-25 22:24 | -28.68072 | 163.08198 | 36215 ft | 401 kts | 282° |
| 2026-04-25 22:25 | -28.67478 | 163.01882 | 36214 ft | 401 kts | 282° |
| 2026-04-25 22:25 | -28.66878 | 162.95564 | 36213 ft | 402 kts | 282° |
| 2026-04-25 22:26 | -28.66275 | 162.89273 | 36211 ft | 402 kts | 282° |
| 2026-04-25 22:26 | -28.65665 | 162.82940 | 36213 ft | 402 kts | 282° |
| 2026-04-25 22:27 | -28.65054 | 162.76610 | 36212 ft | 402 kts | 282° |
| 2026-04-25 22:27 | -28.64439 | 162.70276 | 36215 ft | 403 kts | 282° |
| 2026-04-25 22:28 | -28.63821 | 162.63934 | 36212 ft | 403 kts | 282° |
| 2026-04-25 22:28 | -28.63199 | 162.57591 | 36215 ft | 403 kts | 282° |
| 2026-04-25 22:29 | -28.62575 | 162.51250 | 36212 ft | 403 kts | 282° |
| 2026-04-25 22:29 | -28.61947 | 162.44906 | 36214 ft | 403 kts | 282° |
| 2026-04-25 22:30 | -28.61000 | 162.35390 | 36215 ft | 404 kts | 282° |
| 2026-04-25 22:30 | -28.60472 | 162.30118 | 36216 ft | 404 kts | 282° |
| 2026-04-25 22:31 | -28.59726 | 162.22700 | 36215 ft | 404 kts | 281° |
| 2026-04-25 22:31 | -28.59084 | 162.16342 | 36215 ft | 404 kts | 281° |
| 2026-04-25 22:32 | -28.58439 | 162.09992 | 36216 ft | 404 kts | 281° |
| 2026-04-25 22:32 | -28.57793 | 162.03667 | 36217 ft | 405 kts | 281° |
| 2026-04-25 22:33 | -28.57141 | 161.97308 | 36215 ft | 405 kts | 281° |
| 2026-04-25 22:33 | -28.56485 | 161.90942 | 36211 ft | 405 kts | 281° |
| 2026-04-25 22:34 | -28.55826 | 161.84574 | 36212 ft | 405 kts | 281° |
| 2026-04-25 22:34 | -28.55164 | 161.78207 | 36216 ft | 406 kts | 281° |
| 2026-04-25 22:35 | -28.54499 | 161.71835 | 36213 ft | 406 kts | 281° |
| 2026-04-25 22:35 | -28.53830 | 161.65460 | 36213 ft | 406 kts | 281° |
| 2026-04-25 22:36 | -28.53271 | 161.60158 | 36216 ft | 406 kts | 281° |
| 2026-04-25 22:36 | -28.52484 | 161.52713 | 36219 ft | 405 kts | 281° |
| 2026-04-25 22:37 | -28.51921 | 161.47421 | 36211 ft | 405 kts | 281° |
| 2026-04-25 22:37 | -28.51243 | 161.41067 | 36215 ft | 404 kts | 281° |
| 2026-04-25 22:38 | -28.50679 | 161.35804 | 36211 ft | 403 kts | 281° |
| 2026-04-25 22:38 | -28.49883 | 161.28412 | 36212 ft | 403 kts | 281° |
| 2026-04-25 22:39 | -28.49199 | 161.22092 | 36215 ft | 402 kts | 281° |
| 2026-04-25 22:39 | -28.48518 | 161.15820 | 36211 ft | 402 kts | 281° |
| 2026-04-25 22:40 | -28.47829 | 161.09512 | 36216 ft | 402 kts | 281° |
| 2026-04-25 22:40 | -28.47137 | 161.03203 | 36211 ft | 403 kts | 281° |
| 2026-04-25 22:41 | -28.46441 | 160.96883 | 36217 ft | 403 kts | 281° |
| 2026-04-25 22:41 | -28.45742 | 160.90559 | 36214 ft | 404 kts | 281° |
| 2026-04-25 22:42 | -28.45038 | 160.84224 | 36214 ft | 404 kts | 281° |
| 2026-04-25 22:42 | -28.44331 | 160.77878 | 36216 ft | 405 kts | 281° |
| 2026-04-25 22:43 | -28.43620 | 160.71529 | 36214 ft | 406 kts | 281° |
| 2026-04-25 22:43 | -28.42904 | 160.65170 | 36213 ft | 406 kts | 281° |
| 2026-04-25 22:44 | -28.42184 | 160.58791 | 36211 ft | 407 kts | 281° |
| 2026-04-25 22:44 | -28.41465 | 160.52458 | 36217 ft | 407 kts | 281° |
| 2026-04-25 22:45 | -28.40739 | 160.46084 | 36213 ft | 407 kts | 281° |
| 2026-04-25 22:45 | -28.40009 | 160.39702 | 36215 ft | 407 kts | 281° |
| 2026-04-25 22:46 | -28.39276 | 160.33322 | 36214 ft | 407 kts | 281° |
| 2026-04-25 22:46 | -28.38540 | 160.26939 | 36215 ft | 407 kts | 281° |
| 2026-04-25 22:47 | -28.37801 | 160.20559 | 36217 ft | 408 kts | 281° |
| 2026-04-25 22:47 | -28.37058 | 160.14173 | 36217 ft | 408 kts | 281° |
| 2026-04-25 22:48 | -28.36311 | 160.07784 | 36217 ft | 408 kts | 281° |
| 2026-04-25 22:48 | -28.35563 | 160.01402 | 36219 ft | 408 kts | 281° |
| 2026-04-25 22:49 | -28.34810 | 159.95012 | 36217 ft | 408 kts | 281° |
| 2026-04-25 22:49 | -28.34054 | 159.88615 | 36212 ft | 409 kts | 281° |
| 2026-04-25 22:50 | -28.33295 | 159.82225 | 36214 ft | 409 kts | 281° |
| 2026-04-25 22:50 | -28.32537 | 159.75867 | 36216 ft | 409 kts | 281° |
| 2026-04-25 22:51 | -28.31770 | 159.69464 | 36218 ft | 410 kts | 281° |
| 2026-04-25 22:51 | -28.31008 | 159.63125 | 36215 ft | 410 kts | 281° |
| 2026-04-25 22:52 | -28.30235 | 159.56714 | 36220 ft | 410 kts | 281° |
| 2026-04-25 22:52 | -28.29584 | 159.51341 | 36220 ft | 411 kts | 281° |
| 2026-04-25 22:53 | -28.28678 | 159.43884 | 36224 ft | 411 kts | 281° |
| 2026-04-25 22:53 | -28.27893 | 159.37462 | 36223 ft | 411 kts | 281° |
| 2026-04-25 22:54 | -28.27105 | 159.31029 | 36218 ft | 411 kts | 281° |
| 2026-04-25 22:54 | -28.26314 | 159.24600 | 36215 ft | 412 kts | 281° |
| 2026-04-25 22:55 | -28.25520 | 159.18167 | 36223 ft | 412 kts | 281° |
| 2026-04-25 22:55 | -28.24718 | 159.11728 | 36218 ft | 412 kts | 281° |
| 2026-04-25 22:56 | -28.23911 | 159.05277 | 36218 ft | 413 kts | 281° |
| 2026-04-25 22:56 | -28.23107 | 158.98872 | 36216 ft | 413 kts | 281° |
| 2026-04-25 22:57 | -28.22295 | 158.92419 | 36223 ft | 413 kts | 281° |
| 2026-04-25 22:57 | -28.21479 | 158.85965 | 36219 ft | 414 kts | 281° |
| 2026-04-25 22:58 | -28.20660 | 158.79508 | 36216 ft | 414 kts | 281° |
| 2026-04-25 22:58 | -28.19836 | 158.73039 | 36219 ft | 414 kts | 281° |
| 2026-04-25 22:59 | -28.19008 | 158.66568 | 36219 ft | 415 kts | 281° |
| 2026-04-25 22:59 | -28.18183 | 158.60140 | 36216 ft | 415 kts | 281° |
| 2026-04-25 23:00 | -28.17350 | 158.53671 | 36221 ft | 415 kts | 281° |
| 2026-04-25 23:00 | -28.16513 | 158.47195 | 36221 ft | 415 kts | 281° |
| 2026-04-25 23:01 | -28.15671 | 158.40715 | 36223 ft | 416 kts | 281° |
| 2026-04-25 23:01 | -28.14826 | 158.34224 | 36223 ft | 416 kts | 281° |
| 2026-04-25 23:02 | -28.13978 | 158.27743 | 36223 ft | 416 kts | 281° |
| 2026-04-25 23:02 | -28.13125 | 158.21246 | 36228 ft | 417 kts | 281° |
| 2026-04-25 23:03 | -28.12267 | 158.14736 | 36213 ft | 417 kts | 281° |
| 2026-04-25 23:03 | -28.11413 | 158.08279 | 36225 ft | 417 kts | 281° |
| 2026-04-25 23:04 | -28.10690 | 158.02829 | 36228 ft | 417 kts | 281° |
| 2026-04-25 23:04 | -28.09683 | 157.95273 | 36225 ft | 418 kts | 281° |
| 2026-04-25 23:05 | -28.08812 | 157.88764 | 36224 ft | 418 kts | 281° |
| 2026-04-25 23:05 | -28.07939 | 157.82256 | 36224 ft | 418 kts | 281° |
| 2026-04-25 23:06 | -28.07061 | 157.75744 | 36222 ft | 418 kts | 281° |
| 2026-04-25 23:06 | -28.06181 | 157.69232 | 36225 ft | 418 kts | 281° |
| 2026-04-25 23:07 | -28.05296 | 157.62713 | 36223 ft | 419 kts | 281° |
| 2026-04-25 23:07 | -28.04409 | 157.56200 | 36220 ft | 419 kts | 281° |
| 2026-04-25 23:08 | -28.03523 | 157.49725 | 36220 ft | 419 kts | 281° |
| 2026-04-25 23:08 | -28.02629 | 157.43205 | 36222 ft | 419 kts | 281° |
| 2026-04-25 23:09 | -28.01731 | 157.36684 | 36221 ft | 419 kts | 281° |
| 2026-04-25 23:09 | -28.00829 | 157.30160 | 36221 ft | 419 kts | 281° |
| 2026-04-25 23:10 | -27.99924 | 157.23634 | 36222 ft | 420 kts | 281° |
| 2026-04-25 23:10 | -27.99016 | 157.17113 | 36222 ft | 420 kts | 281° |
| 2026-04-25 23:11 | -27.98106 | 157.10592 | 36225 ft | 420 kts | 281° |
| 2026-04-25 23:11 | -27.97191 | 157.04068 | 36222 ft | 420 kts | 281° |
| 2026-04-25 23:12 | -27.96274 | 156.97551 | 36223 ft | 420 kts | 281° |
| 2026-04-25 23:12 | -27.95353 | 156.91027 | 36221 ft | 420 kts | 281° |
| 2026-04-25 23:13 | -27.94429 | 156.84507 | 36219 ft | 420 kts | 281° |
| 2026-04-25 23:13 | -27.93501 | 156.77978 | 36223 ft | 420 kts | 281° |
| 2026-04-25 23:14 | -27.92570 | 156.71452 | 36213 ft | 420 kts | 281° |
| 2026-04-25 23:14 | -27.91636 | 156.64925 | 36217 ft | 421 kts | 280° |
| 2026-04-25 23:15 | -27.90700 | 156.58397 | 36218 ft | 421 kts | 280° |
| 2026-04-25 23:15 | -27.89759 | 156.51868 | 36217 ft | 421 kts | 280° |
| 2026-04-25 23:16 | -27.88814 | 156.45331 | 36219 ft | 421 kts | 280° |
| 2026-04-25 23:16 | -27.87865 | 156.38803 | 36218 ft | 421 kts | 280° |
| 2026-04-25 23:17 | -27.86913 | 156.32263 | 36215 ft | 421 kts | 280° |
| 2026-04-25 23:17 | -27.85965 | 156.25778 | 36221 ft | 422 kts | 280° |
| 2026-04-25 23:18 | -27.85006 | 156.19237 | 36218 ft | 422 kts | 279° |
| 2026-04-25 23:18 | -27.84044 | 156.12695 | 36223 ft | 422 kts | 279° |
| 2026-04-25 23:19 | -27.83075 | 156.06135 | 36216 ft | 423 kts | 279° |
| 2026-04-25 23:19 | -27.82103 | 155.99567 | 36217 ft | 424 kts | 279° |
| 2026-04-25 23:20 | -27.81128 | 155.93003 | 36217 ft | 424 kts | 279° |
| 2026-04-25 23:20 | -27.80147 | 155.86419 | 36220 ft | 425 kts | 279° |
| 2026-04-25 23:21 | -27.79162 | 155.79839 | 36218 ft | 425 kts | 278° |
| 2026-04-25 23:21 | -27.78175 | 155.73249 | 36222 ft | 425 kts | 278° |
| 2026-04-25 23:22 | -27.77184 | 155.66663 | 36215 ft | 425 kts | 278° |
| 2026-04-25 23:23 | -27.76689 | 155.63379 | 36215 ft | 423 kts | 278° |
| 2026-04-25 23:23 | -27.74286 | 155.47526 | 34570 ft | 409 kts | 278° |
| 2026-04-25 23:24 | -27.73812 | 155.44414 | 34166 ft | 406 kts | 278° |
| 2026-04-25 23:24 | -27.73335 | 155.41283 | 33702 ft | 403 kts | 278° |
| 2026-04-25 23:24 | -27.72860 | 155.38177 | 33289 ft | 400 kts | 278° |
| 2026-04-25 23:24 | -27.72388 | 155.35093 | 32864 ft | 397 kts | 278° |
| 2026-04-25 23:25 | -27.71920 | 155.32041 | 32466 ft | 393 kts | 278° |
| 2026-04-25 23:25 | -27.71456 | 155.29006 | 32076 ft | 390 kts | 278° |
| 2026-04-25 23:25 | -27.70995 | 155.26006 | 31697 ft | 387 kts | 278° |
| 2026-04-25 23:25 | -27.70536 | 155.23020 | 31317 ft | 384 kts | 279° |
| 2026-04-25 23:26 | -27.70079 | 155.20056 | 30935 ft | 382 kts | 279° |
| 2026-04-25 23:26 | -27.69626 | 155.17113 | 30571 ft | 380 kts | 279° |
| 2026-04-25 23:26 | -27.69173 | 155.14185 | 30177 ft | 378 kts | 279° |
| 2026-04-25 23:26 | -27.68722 | 155.11273 | 29745 ft | 376 kts | 279° |
| 2026-04-25 23:27 | -27.68274 | 155.08382 | 29334 ft | 373 kts | 279° |
| 2026-04-25 23:27 | -27.67829 | 155.05515 | 28939 ft | 369 kts | 279° |
| 2026-04-25 23:27 | -27.67387 | 155.02673 | 28549 ft | 367 kts | 278° |
| 2026-04-25 23:27 | -27.66948 | 154.99848 | 28165 ft | 364 kts | 279° |
| 2026-04-25 23:28 | -27.66511 | 154.97050 | 27798 ft | 361 kts | 278° |
| 2026-04-25 23:28 | -27.66084 | 154.94314 | 27435 ft | 357 kts | 278° |
| 2026-04-25 23:28 | -27.65654 | 154.91561 | 27058 ft | 355 kts | 278° |
| 2026-04-25 23:28 | -27.65227 | 154.88825 | 26700 ft | 353 kts | 278° |
| 2026-04-25 23:29 | -27.64802 | 154.86109 | 26326 ft | 350 kts | 278° |
| 2026-04-25 23:29 | -27.64377 | 154.83403 | 25960 ft | 349 kts | 279° |
| 2026-04-25 23:29 | -27.63956 | 154.80719 | 25601 ft | 347 kts | 279° |
| 2026-04-25 23:29 | -27.63535 | 154.78044 | 25237 ft | 345 kts | 279° |
| 2026-04-25 23:30 | -27.63115 | 154.75378 | 24872 ft | 344 kts | 279° |
| 2026-04-25 23:30 | -27.62696 | 154.72722 | 24498 ft | 344 kts | 279° |
| 2026-04-25 23:30 | -27.62278 | 154.70073 | 24143 ft | 343 kts | 279° |
| 2026-04-25 23:30 | -27.61859 | 154.67424 | 23761 ft | 343 kts | 280° |
| 2026-04-25 23:31 | -27.61441 | 154.64782 | 23354 ft | 342 kts | 280° |
| 2026-04-25 23:31 | -27.61024 | 154.62150 | 22969 ft | 340 kts | 280° |
| 2026-04-25 23:31 | -27.60609 | 154.59534 | 22602 ft | 338 kts | 280° |
| 2026-04-25 23:31 | -27.60194 | 154.56929 | 22227 ft | 336 kts | 280° |
| 2026-04-25 23:32 | -27.59783 | 154.54341 | 21869 ft | 334 kts | 280° |
| 2026-04-25 23:32 | -27.59373 | 154.51770 | 21521 ft | 333 kts | 280° |
| 2026-04-25 23:32 | -27.58970 | 154.49245 | 21172 ft | 331 kts | 280° |
| 2026-04-25 23:32 | -27.58563 | 154.46693 | 20823 ft | 330 kts | 280° |
| 2026-04-25 23:33 | -27.58157 | 154.44156 | 20475 ft | 329 kts | 279° |
| 2026-04-25 23:33 | -27.57753 | 154.41627 | 20128 ft | 327 kts | 280° |
| 2026-04-25 23:33 | -27.57348 | 154.39100 | 19784 ft | 327 kts | 279° |
| 2026-04-25 23:33 | -27.56943 | 154.36581 | 19434 ft | 326 kts | 279° |
| 2026-04-25 23:34 | -27.56540 | 154.34070 | 19080 ft | 326 kts | 279° |
| 2026-04-25 23:34 | -27.56137 | 154.31560 | 18723 ft | 326 kts | 280° |
| 2026-04-25 23:34 | -27.55732 | 154.29047 | 18348 ft | 326 kts | 280° |
| 2026-04-25 23:34 | -27.55327 | 154.26537 | 17968 ft | 325 kts | 280° |
| 2026-04-25 23:35 | -27.54924 | 154.24037 | 17606 ft | 324 kts | 280° |
| 2026-04-25 23:35 | -27.54522 | 154.21549 | 17253 ft | 322 kts | 280° |
| 2026-04-25 23:35 | -27.54121 | 154.19069 | 16900 ft | 321 kts | 280° |
| 2026-04-25 23:35 | -27.53721 | 154.16599 | 16561 ft | 320 kts | 280° |
| 2026-04-25 23:36 | -27.53322 | 154.14137 | 16215 ft | 319 kts | 280° |
| 2026-04-25 23:36 | -27.53058 | 154.12512 | 15990 ft | 319 kts | 280° |
| 2026-04-25 23:36 | -27.52525 | 154.09225 | 15521 ft | 318 kts | 280° |
| 2026-04-25 23:36 | -27.52126 | 154.06780 | 15169 ft | 318 kts | 280° |
| 2026-04-25 23:37 | -27.51721 | 154.04322 | 14722 ft | 322 kts | 280° |
| 2026-04-25 23:37 | -27.51309 | 154.01870 | 14333 ft | 323 kts | 280° |
| 2026-04-25 23:37 | -27.50884 | 153.99353 | 13961 ft | 323 kts | 280° |
| 2026-04-25 23:37 | -27.50469 | 153.96893 | 13596 ft | 323 kts | 280° |
| 2026-04-25 23:38 | -27.50051 | 153.94418 | 13244 ft | 321 kts | 280° |
| 2026-04-25 23:38 | -27.49635 | 153.91952 | 12907 ft | 319 kts | 280° |
| 2026-04-25 23:38 | -27.49220 | 153.89502 | 12567 ft | 318 kts | 281° |
| 2026-04-25 23:38 | -27.48459 | 153.87181 | 12219 ft | 317 kts | 303° |
| 2026-04-25 23:39 | -27.47066 | 153.85279 | 11903 ft | 314 kts | 314° |
| 2026-04-25 23:39 | -27.45565 | 153.83503 | 11582 ft | 313 kts | 315° |
| 2026-04-25 23:39 | -27.44058 | 153.81750 | 11257 ft | 311 kts | 315° |
| 2026-04-25 23:39 | -27.42557 | 153.79997 | 10933 ft | 311 kts | 314° |
| 2026-04-25 23:40 | -27.41545 | 153.78807 | 10712 ft | 310 kts | 314° |
| 2026-04-25 23:40 | -27.40078 | 153.77072 | 10446 ft | 307 kts | 314° |
| 2026-04-25 23:40 | -27.38626 | 153.75348 | 10245 ft | 302 kts | 314° |
| 2026-04-25 23:40 | -27.37173 | 153.73619 | 9828 ft | 305 kts | 314° |
| 2026-04-25 23:41 | -27.35722 | 153.71892 | 9519 ft | 303 kts | 314° |
| 2026-04-25 23:41 | -27.34278 | 153.70174 | 9196 ft | 302 kts | 314° |
| 2026-04-25 23:41 | -27.32880 | 153.68421 | 8914 ft | 299 kts | 306° |
| 2026-04-25 23:41 | -27.31779 | 153.66455 | 8711 ft | 295 kts | 299° |
| 2026-04-25 23:42 | -27.30804 | 153.64433 | 8490 ft | 293 kts | 298° |
| 2026-04-25 23:42 | -27.29855 | 153.62418 | 8293 ft | 290 kts | 298° |
| 2026-04-25 23:42 | -27.28907 | 153.60427 | 8093 ft | 288 kts | 298° |
| 2026-04-25 23:42 | -27.27948 | 153.58441 | 7886 ft | 289 kts | 298° |
| 2026-04-25 23:43 | -27.26980 | 153.56459 | 7687 ft | 289 kts | 299° |
| 2026-04-25 23:43 | -27.26044 | 153.54559 | 7480 ft | 288 kts | 299° |
| 2026-04-25 23:43 | -27.25072 | 153.52592 | 7300 ft | 288 kts | 299° |
| 2026-04-25 23:43 | -27.24093 | 153.50617 | 7096 ft | 291 kts | 299° |
| 2026-04-25 23:44 | -27.23106 | 153.48630 | 6890 ft | 292 kts | 299° |
| 2026-04-25 23:44 | -27.22118 | 153.46644 | 6684 ft | 292 kts | 299° |
| 2026-04-25 23:44 | -27.21129 | 153.44656 | 6453 ft | 290 kts | 299° |
| 2026-04-25 23:44 | -27.20147 | 153.42686 | 6248 ft | 287 kts | 299° |
| 2026-04-25 23:45 | -27.18998 | 153.40875 | 6019 ft | 283 kts | 318° |
| 2026-04-25 23:45 | -27.17500 | 153.39476 | 5841 ft | 279 kts | 323° |
| 2026-04-25 23:45 | -27.15994 | 153.38105 | 5634 ft | 277 kts | 322° |
| 2026-04-25 23:45 | -27.14522 | 153.36740 | 5419 ft | 272 kts | 319° |
| 2026-04-25 23:46 | -27.13435 | 153.35037 | 5219 ft | 268 kts | 289° |
| 2026-04-25 23:46 | -27.13198 | 153.33107 | 5046 ft | 259 kts | 262° |
| 2026-04-25 23:46 | -27.13668 | 153.31173 | 4881 ft | 248 kts | 241° |
| 2026-04-25 23:46 | -27.14404 | 153.29445 | 4700 ft | 243 kts | 240° |
| 2026-04-25 23:47 | -27.15135 | 153.27758 | 4527 ft | 238 kts | 240° |
| 2026-04-25 23:47 | -27.15866 | 153.26101 | 4345 ft | 232 kts | 233° |
| 2026-04-25 23:47 | -27.17001 | 153.24981 | 4220 ft | 208 kts | 200° |
| 2026-04-25 23:47 | -27.18275 | 153.24309 | 4084 ft | 196 kts | 198° |
| 2026-04-25 23:48 | -27.19490 | 153.23703 | 3905 ft | 189 kts | 198° |
| 2026-04-25 23:48 | -27.20658 | 153.23076 | 3678 ft | 183 kts | 199° |
| 2026-04-25 23:48 | -27.21781 | 153.22445 | 3431 ft | 178 kts | 200° |
| 2026-04-25 23:48 | -27.22852 | 153.21833 | 3210 ft | 173 kts | 200° |
| 2026-04-25 23:49 | -27.23922 | 153.21219 | 2984 ft | 172 kts | 199° |
| 2026-04-25 23:49 | -27.24963 | 153.20619 | 2785 ft | 162 kts | 199° |
| 2026-04-25 23:49 | -27.25959 | 153.20047 | 2546 ft | 160 kts | 199° |
| 2026-04-25 23:49 | -27.26955 | 153.19475 | 2330 ft | 160 kts | 199° |
| 2026-04-25 23:50 | -27.27945 | 153.18907 | 2115 ft | 160 kts | 199° |
| 2026-04-25 23:50 | -27.28910 | 153.18351 | 1899 ft | 154 kts | 200° |
| 2026-04-25 23:50 | -27.29844 | 153.17812 | 1707 ft | 148 kts | 199° |
| 2026-04-25 23:50 | -27.30757 | 153.17288 | 1516 ft | 145 kts | 199° |
| 2026-04-25 23:51 | -27.31654 | 153.16772 | 1314 ft | 143 kts | 200° |
| 2026-04-25 23:51 | -27.32539 | 153.16264 | 1133 ft | 145 kts | 200° |
| 2026-04-25 23:51 | -27.33423 | 153.15757 | 935 ft | 145 kts | 199° |
| 2026-04-25 23:51 | -27.34135 | 153.15349 | 786 ft | 144 kts | 204° |
| 2026-04-25 23:52 | -27.34940 | 153.14884 | 595 ft | 139 kts | 205° |
| 2026-04-25 23:52 | -27.35793 | 153.14393 | 423 ft | 137 kts | 206° |
| 2026-04-25 23:52 | -27.36662 | 153.13888 | 301 ft | 142 kts | 205° |
| 2026-04-25 23:52 | -27.37512 | 153.13406 | 99 ft | 135 kts | 207° |
| 2026-04-25 23:53 | -27.38317 | 153.12944 | 31 ft | 127 kts | 207° |
| 2026-04-25 23:53 | -27.39041 | 153.12531 | 19 ft | 106 kts | 207° |
| 2026-04-25 23:53 | -27.39569 | 153.12218 | 20 ft | 72 kts | 207° |
| 2026-04-25 23:53 | -27.39917 | 153.12027 | 19 ft | 36 kts | 205° |
| 2026-04-25 23:54 | -27.40033 | 153.11961 | 19 ft | 5 kts | 207° |
| 2026-04-25 23:54 | -27.40101 | 153.11921 | 19 ft | 20 kts | 207° |
| 2026-04-25 23:54 | -27.40227 | 153.11847 | 18 ft | 20 kts | 209° |
| 2026-04-25 23:54 | -27.40321 | 153.11741 | 18 ft | 20 kts | 260° |
| 2026-04-25 23:55 | -27.40282 | 153.11589 | 17 ft | 21 kts | 297° |
| 2026-04-25 23:55 | -27.40242 | 153.11499 | 17 ft | 11 kts | 297° |
| 2026-04-25 23:55 | -27.40204 | 153.11418 | 17 ft | 13 kts | 297° |
| 2026-04-25 23:55 | -27.40201 | 153.11333 | 17 ft | 8 kts | 235° |
| 2026-04-25 23:56 | -27.40238 | 153.11303 | 17 ft | 4 kts | 211° |
| 2026-04-25 23:56 | -27.40256 | 153.11279 | 17 ft | 5 kts | 253° |
| 2026-04-25 23:56 | -27.40246 | 153.11240 | 18 ft | 6 kts | 298° |
| 2026-04-25 23:56 | -27.40229 | 153.11202 | 17 ft | 0 kts | 296° |
| 2026-04-25 23:57 | -27.40227 | 153.11198 | 17 ft | 0 kts | 296° |